ハリファックス の空港の天気 - METARとTAF

ハリファックス国際空港 ( CYHZ / YHZ ) - カナダ ノバスコシア州ハリファックス
飛行場実況気象(Metar)
観測時間03/28 12:00 ADT (03/28 15:00 UTC)
風向・風速北 5m/s 瞬間風速9m/s
視程10km以上
天気現象
全天の8割程度の雲 雲底高度 520m
気温2℃
湿度75%
気圧1015.2hPa
METARCYHZ 281500Z 36009G17KT 340V050 15SM BKN017 02/M02 A2996 RMK SC6 SLP152
過去の天気等 Google飛行場航空写真 Wunderground天気予報

過去48時間のMETAR

飛行場予報(TAF)
発表時間: 3/28 11:40 ADT (3/28 14:40 UTC)
予報対象時間: 28日12時 ADT ~ 29日9時 ADT
風向・風速北 4m/s
視程10km以上
全天の8割程度の雲 雲底高度 300m
28日12時 ADT ~ 28日14時 ADT に徐々に
全天の4割程度の雲 雲底高度 300m
28日14時 ADT から
風向・風速北 4m/s
視程10km以上
全天の8割程度の雲 雲底高度 1220m
28日21時 ADT から
風向・風速北北東 3m/s
視程10km以上
全天の4割程度の雲 雲底高度 1220m
29日1時 ADT から
風向・風速不定 2m/s
視程10km以上
全天の4割程度の雲 雲底高度 610m
全天を覆う雲 雲底高度 1220m
29日6時 ADT から
風向・風速不定 2m/s
視程10km以上
少しの雲 雲底高度 180m
全天の4割程度の雲 雲底高度 370m
TAF CYHZ 281440Z 2815/2912 36008KT P6SM BKN010
BECMG 2815/2817 SCT010
FM281700 36008KT P6SM BKN040
FM290000 03005KT P6SM SCT040
FM290400 VRB03KT P6SM SCT020 OVC040
FM290900 VRB03KT P6SM FEW006 SCT012 RMK NXT FCST BY 281800Z